sensor_id;sensor_type;location;lat;lon;timestamp;pressure;altitude;pressure_sealevel;temperature;humidity
80712;BME280;70078;51.596;5.678;2023-11-18T00:02:17;102272.81;;;4.71;87.34
80712;BME280;70078;51.596;5.678;2023-11-18T00:04:42;102309.28;;;4.94;87.56
80712;BME280;70078;51.596;5.678;2023-11-18T00:07:08;102242.94;;;4.55;87.58
80712;BME280;70078;51.596;5.678;2023-11-18T00:09:34;102266.00;;;4.81;87.61
80712;BME280;70078;51.596;5.678;2023-11-18T00:11:59;102272.97;;;4.82;87.73
80712;BME280;70078;51.596;5.678;2023-11-18T00:14:25;102291.88;;;4.90;87.96
80712;BME280;70078;51.596;5.678;2023-11-18T00:16:50;102249.47;;;4.63;87.85
80712;BME280;70078;51.596;5.678;2023-11-18T00:19:16;102249.09;;;4.69;87.92
80712;BME280;70078;51.596;5.678;2023-11-18T00:21:42;102310.41;;;5.05;87.50
80712;BME280;70078;51.596;5.678;2023-11-18T00:24:08;102266.00;;;4.81;87.59
80712;BME280;70078;51.596;5.678;2023-11-18T00:26:33;102249.66;;;4.74;87.63
80712;BME280;70078;51.596;5.678;2023-11-18T00:28:59;102294.91;;;4.98;87.47
80712;BME280;70078;51.596;5.678;2023-11-18T00:31:25;102208.66;;;4.39;87.32
80712;BME280;70078;51.596;5.678;2023-11-18T00:33:51;102292.28;;;4.84;87.87
80712;BME280;70078;51.596;5.678;2023-11-18T00:36:16;102262.81;;;4.76;87.55
80712;BME280;70078;51.596;5.678;2023-11-18T00:38:41;102261.66;;;4.80;87.49
80712;BME280;70078;51.596;5.678;2023-11-18T00:41:07;102260.91;;;4.64;87.96
80712;BME280;70078;51.596;5.678;2023-11-18T00:43:32;102243.78;;;4.55;87.80
80712;BME280;70078;51.596;5.678;2023-11-18T00:45:57;102273.75;;;4.70;87.45
80712;BME280;70078;51.596;5.678;2023-11-18T00:48:24;102256.16;;;4.55;87.76
80712;BME280;70078;51.596;5.678;2023-11-18T00:50:50;102296.59;;;4.71;87.91
80712;BME280;70078;51.596;5.678;2023-11-18T00:53:17;102268.72;;;4.51;87.63
80712;BME280;70078;51.596;5.678;2023-11-18T00:55:42;102234.78;;;4.43;87.92
80712;BME280;70078;51.596;5.678;2023-11-18T00:58:07;102239.69;;;4.35;87.95
80712;BME280;70078;51.596;5.678;2023-11-18T01:00:33;102272.56;;;4.45;88.10
80712;BME280;70078;51.596;5.678;2023-11-18T01:02:58;102237.50;;;4.28;88.11
80712;BME280;70078;51.596;5.678;2023-11-18T01:05:23;102305.84;;;4.64;88.43
80712;BME280;70078;51.596;5.678;2023-11-18T01:07:49;102281.38;;;4.46;88.22
80712;BME280;70078;51.596;5.678;2023-11-18T01:10:15;102298.88;;;4.63;88.54
80712;BME280;70078;51.596;5.678;2023-11-18T01:12:40;102264.91;;;4.41;88.53
80712;BME280;70078;51.596;5.678;2023-11-18T01:15:07;102308.41;;;4.65;88.67
80712;BME280;70078;51.596;5.678;2023-11-18T01:17:35;102261.44;;;4.40;88.94
80712;BME280;70078;51.596;5.678;2023-11-18T01:20:01;102319.72;;;4.67;88.84
80712;BME280;70078;51.596;5.678;2023-11-18T01:22:31;102270.31;;;4.39;88.78
80712;BME280;70078;51.596;5.678;2023-11-18T01:24:59;102328.34;;;4.71;88.98
80712;BME280;70078;51.596;5.678;2023-11-18T01:27:25;102321.38;;;4.70;88.85
80712;BME280;70078;51.596;5.678;2023-11-18T01:29:50;102232.31;;;4.26;88.63
80712;BME280;70078;51.596;5.678;2023-11-18T01:32:15;102280.31;;;4.49;88.62
80712;BME280;70078;51.596;5.678;2023-11-18T01:34:46;102294.78;;;4.57;89.02
80712;BME280;70078;51.596;5.678;2023-11-18T01:37:16;102289.69;;;4.54;88.62
80712;BME280;70078;51.596;5.678;2023-11-18T01:39:41;102314.75;;;4.77;88.65
80712;BME280;70078;51.596;5.678;2023-11-18T01:42:07;102266.41;;;4.45;88.67
80712;BME280;70078;51.596;5.678;2023-11-18T01:44:32;102263.63;;;4.48;88.74
80712;BME280;70078;51.596;5.678;2023-11-18T01:47:01;102252.19;;;4.48;88.49
80712;BME280;70078;51.596;5.678;2023-11-18T01:49:28;102255.00;;;4.44;88.63
80712;BME280;70078;51.596;5.678;2023-11-18T01:51:54;102240.94;;;4.44;88.52
80712;BME280;70078;51.596;5.678;2023-11-18T01:54:21;102228.16;;;4.36;88.52
80712;BME280;70078;51.596;5.678;2023-11-18T01:56:50;102267.50;;;4.71;88.63
80712;BME280;70078;51.596;5.678;2023-11-18T01:59:17;102270.72;;;4.62;88.56
80712;BME280;70078;51.596;5.678;2023-11-18T02:01:53;102298.91;;;4.91;88.75
80712;BME280;70078;51.596;5.678;2023-11-18T02:04:19;102244.66;;;4.56;88.50
80712;BME280;70078;51.596;5.678;2023-11-18T02:06:47;102255.59;;;4.64;88.57
80712;BME280;70078;51.596;5.678;2023-11-18T02:09:15;102236.97;;;4.51;88.52
80712;BME280;70078;51.596;5.678;2023-11-18T02:11:54;102299.56;;;4.95;88.45
80712;BME280;70078;51.596;5.678;2023-11-18T02:14:26;102300.97;;;5.00;88.68
80712;BME280;70078;51.596;5.678;2023-11-18T02:16:52;102292.34;;;4.97;88.68
80712;BME280;70078;51.596;5.678;2023-11-18T02:19:23;102308.13;;;4.98;88.90
80712;BME280;70078;51.596;5.678;2023-11-18T02:21:50;102260.22;;;4.74;88.67
80712;BME280;70078;51.596;5.678;2023-11-18T02:24:46;102307.97;;;5.01;89.11
80712;BME280;70078;51.596;5.678;2023-11-18T02:27:12;102292.34;;;4.97;89.18
80712;BME280;70078;51.596;5.678;2023-11-18T02:29:40;102309.47;;;5.06;89.35
80712;BME280;70078;51.596;5.678;2023-11-18T02:37:38;102299.34;;;4.98;89.40
80712;BME280;70078;51.596;5.678;2023-11-18T02:40:05;102315.06;;;5.01;89.78
80712;BME280;70078;51.596;5.678;2023-11-18T02:42:36;102317.59;;;5.03;89.55
80712;BME280;70078;51.596;5.678;2023-11-18T02:45:03;102255.97;;;4.72;89.75
80712;BME280;70078;51.596;5.678;2023-11-18T02:47:31;102273.38;;;4.90;89.49
80712;BME280;70078;51.596;5.678;2023-11-18T02:49:57;102265.63;;;4.87;89.47
80712;BME280;70078;51.596;5.678;2023-11-18T02:52:31;102287.16;;;5.10;89.83
80712;BME280;70078;51.596;5.678;2023-11-18T02:54:56;102224.03;;;4.75;89.59
80712;BME280;70078;51.596;5.678;2023-11-18T02:57:21;102228.31;;;4.78;89.55
80712;BME280;70078;51.596;5.678;2023-11-18T02:59:47;102239.53;;;4.95;89.43
80712;BME280;70078;51.596;5.678;2023-11-18T03:02:12;102238.09;;;5.04;89.39
80712;BME280;70078;51.596;5.678;2023-11-18T03:04:38;102274.56;;;5.27;89.44
80712;BME280;70078;51.596;5.678;2023-11-18T03:07:03;102249.16;;;5.11;89.13
80712;BME280;70078;51.596;5.678;2023-11-18T03:09:28;102237.53;;;5.13;88.91
80712;BME280;70078;51.596;5.678;2023-11-18T03:11:54;102258.78;;;5.26;89.16
80712;BME280;70078;51.596;5.678;2023-11-18T03:14:20;102205.13;;;4.95;88.85
80712;BME280;70078;51.596;5.678;2023-11-18T03:16:45;102211.97;;;4.99;89.11
80712;BME280;70078;51.596;5.678;2023-11-18T03:19:10;102242.53;;;5.18;89.02
80712;BME280;70078;51.596;5.678;2023-11-18T03:21:36;102187.38;;;4.83;89.20
80712;BME280;70078;51.596;5.678;2023-11-18T03:24:02;102229.69;;;5.12;88.95
80712;BME280;70078;51.596;5.678;2023-11-18T03:26:27;102282.22;;;5.32;88.96
80712;BME280;70078;51.596;5.678;2023-11-18T03:28:53;102253.13;;;5.18;89.05
80712;BME280;70078;51.596;5.678;2023-11-18T03:31:18;102251.44;;;5.17;89.03
80712;BME280;70078;51.596;5.678;2023-11-18T03:33:44;102269.84;;;5.33;89.22
80712;BME280;70078;51.596;5.678;2023-11-18T03:36:10;102259.75;;;5.25;89.19
80712;BME280;70078;51.596;5.678;2023-11-18T03:38:37;102206.00;;;4.96;88.64
80712;BME280;70078;51.596;5.678;2023-11-18T03:41:02;102251.22;;;5.20;88.59
80712;BME280;70078;51.596;5.678;2023-11-18T03:43:28;102204.19;;;4.96;88.66
80712;BME280;70078;51.596;5.678;2023-11-18T03:45:54;102256.13;;;5.26;89.25
80712;BME280;70078;51.596;5.678;2023-11-18T03:48:22;102174.94;;;4.85;89.03
80712;BME280;70078;51.596;5.678;2023-11-18T03:50:47;102226.88;;;5.15;89.44
80712;BME280;70078;51.596;5.678;2023-11-18T03:53:12;102231.56;;;5.24;89.58
80712;BME280;70078;51.596;5.678;2023-11-18T03:55:38;102199.25;;;5.05;89.47
80712;BME280;70078;51.596;5.678;2023-11-18T03:58:03;102214.16;;;5.20;89.53
80712;BME280;70078;51.596;5.678;2023-11-18T04:00:28;102174.06;;;4.99;89.25
80712;BME280;70078;51.596;5.678;2023-11-18T04:02:57;102223.31;;;5.28;89.54
80712;BME280;70078;51.596;5.678;2023-11-18T04:05:23;102207.38;;;5.16;89.58
80712;BME280;70078;51.596;5.678;2023-11-18T04:07:49;102192.34;;;5.16;89.38
80712;BME280;70078;51.596;5.678;2023-11-18T04:10:14;102193.84;;;5.20;89.43
80712;BME280;70078;51.596;5.678;2023-11-18T04:12:40;102199.06;;;5.22;89.58
80712;BME280;70078;51.596;5.678;2023-11-18T04:15:06;102179.00;;;5.18;89.62
80712;BME280;70078;51.596;5.678;2023-11-18T04:17:32;102191.28;;;5.19;89.40
80712;BME280;70078;51.596;5.678;2023-11-18T04:19:58;102162.78;;;5.10;89.73
80712;BME280;70078;51.596;5.678;2023-11-18T04:22:23;102198.47;;;5.31;89.60
80712;BME280;70078;51.596;5.678;2023-11-18T04:24:49;102171.34;;;5.13;89.52
80712;BME280;70078;51.596;5.678;2023-11-18T04:27:15;102203.53;;;5.34;89.66
80712;BME280;70078;51.596;5.678;2023-11-18T04:29:40;102197.50;;;5.32;89.59
80712;BME280;70078;51.596;5.678;2023-11-18T04:32:06;102185.81;;;5.22;89.23
80712;BME280;70078;51.596;5.678;2023-11-18T04:34:36;102181.06;;;5.27;89.81
80712;BME280;70078;51.596;5.678;2023-11-18T04:37:01;102192.41;;;5.29;89.68
80712;BME280;70078;51.596;5.678;2023-11-18T04:39:27;102172.75;;;5.19;90.03
80712;BME280;70078;51.596;5.678;2023-11-18T04:41:53;102165.72;;;5.32;89.78
80712;BME280;70078;51.596;5.678;2023-11-18T04:44:18;102158.94;;;5.28;89.66
80712;BME280;70078;51.596;5.678;2023-11-18T04:46:47;102142.91;;;5.17;90.09
80712;BME280;70078;51.596;5.678;2023-11-18T04:49:12;102154.19;;;5.33;89.69
80712;BME280;70078;51.596;5.678;2023-11-18T04:51:37;102133.44;;;5.13;89.99
80712;BME280;70078;51.596;5.678;2023-11-18T04:54:03;102151.59;;;5.19;90.32
80712;BME280;70078;51.596;5.678;2023-11-18T04:56:28;102148.56;;;5.25;90.27
80712;BME280;70078;51.596;5.678;2023-11-18T04:58:54;102130.34;;;5.06;90.48
80712;BME280;70078;51.596;5.678;2023-11-18T05:01:19;102157.09;;;5.16;90.67
80712;BME280;70078;51.596;5.678;2023-11-18T05:03:44;102129.66;;;5.17;90.76
80712;BME280;70078;51.596;5.678;2023-11-18T05:06:10;102140.03;;;5.20;90.82
80712;BME280;70078;51.596;5.678;2023-11-18T05:08:35;102113.91;;;5.15;90.68
80712;BME280;70078;51.596;5.678;2023-11-18T05:11:02;102144.25;;;5.37;90.59
80712;BME280;70078;51.596;5.678;2023-11-18T05:13:29;102145.50;;;5.31;90.83
80712;BME280;70078;51.596;5.678;2023-11-18T05:15:55;102136.41;;;5.35;90.62
80712;BME280;70078;51.596;5.678;2023-11-18T05:18:20;102098.97;;;5.14;90.86
80712;BME280;70078;51.596;5.678;2023-11-18T05:20:46;102133.97;;;5.32;90.62
80712;BME280;70078;51.596;5.678;2023-11-18T05:23:12;102144.78;;;5.42;91.00
80712;BME280;70078;51.596;5.678;2023-11-18T05:25:41;102134.41;;;5.39;91.08
80712;BME280;70078;51.596;5.678;2023-11-18T05:28:08;102116.63;;;5.41;91.24
80712;BME280;70078;51.596;5.678;2023-11-18T05:30:35;102114.25;;;5.36;91.18
80712;BME280;70078;51.596;5.678;2023-11-18T05:33:04;102128.00;;;5.55;90.87
80712;BME280;70078;51.596;5.678;2023-11-18T05:35:31;102083.00;;;5.28;90.85
80712;BME280;70078;51.596;5.678;2023-11-18T05:37:57;102106.69;;;5.44;91.15
80712;BME280;70078;51.596;5.678;2023-11-18T05:40:22;102116.50;;;5.42;91.11
80712;BME280;70078;51.596;5.678;2023-11-18T05:42:48;102118.75;;;5.48;91.35
80712;BME280;70078;51.596;5.678;2023-11-18T05:45:17;102122.41;;;5.60;91.46
80712;BME280;70078;51.596;5.678;2023-11-18T05:47:54;102118.91;;;5.60;90.69
80712;BME280;70078;51.596;5.678;2023-11-18T05:50:20;102100.78;;;5.53;90.49
80712;BME280;70078;51.596;5.678;2023-11-18T05:52:45;102123.69;;;5.67;90.64
80712;BME280;70078;51.596;5.678;2023-11-18T05:55:10;102089.22;;;5.54;90.82
80712;BME280;70078;51.596;5.678;2023-11-18T05:57:36;102083.28;;;5.64;90.84
80712;BME280;70078;51.596;5.678;2023-11-18T06:00:01;102070.91;;;5.64;90.79
80712;BME280;70078;51.596;5.678;2023-11-18T06:02:26;102086.78;;;5.64;90.54
80712;BME280;70078;51.596;5.678;2023-11-18T06:04:52;102097.41;;;5.77;91.12
80712;BME280;70078;51.596;5.678;2023-11-18T06:07:17;102078.22;;;5.61;90.88
80712;BME280;70078;51.596;5.678;2023-11-18T06:09:44;102096.31;;;5.67;90.99
80712;BME280;70078;51.596;5.678;2023-11-18T06:12:10;102073.88;;;5.60;91.28
80712;BME280;70078;51.596;5.678;2023-11-18T06:14:37;102077.03;;;5.65;91.65
80712;BME280;70078;51.596;5.678;2023-11-18T06:17:02;102057.53;;;5.66;91.08
80712;BME280;70078;51.596;5.678;2023-11-18T06:19:28;102051.81;;;5.59;91.11
80712;BME280;70078;51.596;5.678;2023-11-18T06:21:53;102062.44;;;5.72;91.39
80712;BME280;70078;51.596;5.678;2023-11-18T06:24:19;102068.34;;;5.63;91.22
80712;BME280;70078;51.596;5.678;2023-11-18T06:26:46;102060.63;;;5.60;91.58
80712;BME280;70078;51.596;5.678;2023-11-18T06:29:12;102056.69;;;5.52;91.56
80712;BME280;70078;51.596;5.678;2023-11-18T06:31:37;102099.00;;;5.79;91.55
80712;BME280;70078;51.596;5.678;2023-11-18T06:34:02;102080.56;;;5.78;91.35
80712;BME280;70078;51.596;5.678;2023-11-18T06:36:28;102049.81;;;5.63;91.28
80712;BME280;70078;51.596;5.678;2023-11-18T06:38:56;102053.31;;;5.76;90.80
80712;BME280;70078;51.596;5.678;2023-11-18T06:41:22;102071.34;;;5.83;90.84
80712;BME280;70078;51.596;5.678;2023-11-18T06:44:08;102058.81;;;5.73;90.52
80712;BME280;70078;51.596;5.678;2023-11-18T06:46:42;102074.84;;;5.84;90.05
80712;BME280;70078;51.596;5.678;2023-11-18T06:49:08;102046.41;;;5.73;90.30
80712;BME280;70078;51.596;5.678;2023-11-18T06:51:36;102085.69;;;5.94;90.67
80712;BME280;70078;51.596;5.678;2023-11-18T06:54:06;102081.47;;;5.91;90.70
80712;BME280;70078;51.596;5.678;2023-11-18T06:56:36;102069.22;;;5.89;90.74
80712;BME280;70078;51.596;5.678;2023-11-18T06:59:08;102026.72;;;5.65;90.67
80712;BME280;70078;51.596;5.678;2023-11-18T07:01:35;102070.53;;;5.96;90.65
80712;BME280;70078;51.596;5.678;2023-11-18T07:04:02;102073.81;;;5.99;90.98
80712;BME280;70078;51.596;5.678;2023-11-18T07:06:27;101977.44;;;5.49;90.72
80712;BME280;70078;51.596;5.678;2023-11-18T07:08:54;102061.00;;;6.06;90.64
80712;BME280;70078;51.596;5.678;2023-11-18T07:11:25;102041.88;;;5.88;90.48
80712;BME280;70078;51.596;5.678;2023-11-18T07:13:51;102052.94;;;5.95;90.75
80712;BME280;70078;51.596;5.678;2023-11-18T07:16:22;102047.94;;;5.90;90.75
80712;BME280;70078;51.596;5.678;2023-11-18T07:18:47;102051.00;;;5.97;91.16
80712;BME280;70078;51.596;5.678;2023-11-18T07:21:13;102051.88;;;5.97;90.69
80712;BME280;70078;51.596;5.678;2023-11-18T07:23:39;102042.13;;;5.98;90.59
80712;BME280;70078;51.596;5.678;2023-11-18T07:26:04;102044.84;;;5.96;90.50
80712;BME280;70078;51.596;5.678;2023-11-18T07:28:30;102046.91;;;6.05;90.24
80712;BME280;70078;51.596;5.678;2023-11-18T07:30:56;102054.84;;;6.05;90.39
80712;BME280;70078;51.596;5.678;2023-11-18T07:33:23;102059.28;;;6.18;90.32
80712;BME280;70078;51.596;5.678;2023-11-18T07:35:49;102024.72;;;5.94;90.13
80712;BME280;70078;51.596;5.678;2023-11-18T07:38:15;102043.59;;;6.02;90.42
80712;BME280;70078;51.596;5.678;2023-11-18T07:40:41;102067.97;;;6.20;90.63
80712;BME280;70078;51.596;5.678;2023-11-18T07:43:13;102070.41;;;6.23;90.55
80712;BME280;70078;51.596;5.678;2023-11-18T07:45:39;102068.38;;;6.26;90.25
80712;BME280;70078;51.596;5.678;2023-11-18T07:48:14;102059.16;;;6.19;90.06
80712;BME280;70078;51.596;5.678;2023-11-18T07:50:43;102080.16;;;6.35;89.68
80712;BME280;70078;51.596;5.678;2023-11-18T07:53:12;102072.81;;;6.26;89.68
80712;BME280;70078;51.596;5.678;2023-11-18T07:55:38;102063.31;;;6.23;89.81
80712;BME280;70078;51.596;5.678;2023-11-18T07:58:08;102081.75;;;6.37;89.72
80712;BME280;70078;51.596;5.678;2023-11-18T08:00:39;102078.34;;;6.35;89.72
80712;BME280;70078;51.596;5.678;2023-11-18T08:03:09;102075.91;;;6.32;89.69
80712;BME280;70078;51.596;5.678;2023-11-18T08:05:42;102072.41;;;6.32;89.44
80712;BME280;70078;51.596;5.678;2023-11-18T08:08:11;102041.06;;;6.13;89.35
80712;BME280;70078;51.596;5.678;2023-11-18T08:10:38;102090.84;;;6.46;89.33
80712;BME280;70078;51.596;5.678;2023-11-18T08:13:05;102048.53;;;6.19;88.91
80712;BME280;70078;51.596;5.678;2023-11-18T08:15:32;102066.97;;;6.33;89.06
80712;BME280;70078;51.596;5.678;2023-11-18T08:17:57;102067.28;;;6.42;89.35
80712;BME280;70078;51.596;5.678;2023-11-18T08:20:22;102080.47;;;6.43;89.12
80712;BME280;70078;51.596;5.678;2023-11-18T08:22:50;102081.94;;;6.47;89.75
80712;BME280;70078;51.596;5.678;2023-11-18T08:25:15;102073.53;;;6.53;89.29
80712;BME280;70078;51.596;5.678;2023-11-18T08:27:45;102068.22;;;6.53;89.41
80712;BME280;70078;51.596;5.678;2023-11-18T08:30:11;102062.81;;;6.55;89.42
80712;BME280;70078;51.596;5.678;2023-11-18T08:32:38;102064.19;;;6.60;89.45
80712;BME280;70078;51.596;5.678;2023-11-18T08:35:07;102063.34;;;6.47;89.46
80712;BME280;70078;51.596;5.678;2023-11-18T08:37:37;102047.97;;;6.52;89.18
80712;BME280;70078;51.596;5.678;2023-11-18T08:40:04;102036.72;;;6.49;89.37
80712;BME280;70078;51.596;5.678;2023-11-18T08:42:31;102040.97;;;6.51;89.42
80712;BME280;70078;51.596;5.678;2023-11-18T08:44:57;102020.91;;;6.47;89.36
80712;BME280;70078;51.596;5.678;2023-11-18T08:47:24;101990.94;;;6.34;89.24
80712;BME280;70078;51.596;5.678;2023-11-18T08:49:50;101982.66;;;6.38;89.40
80712;BME280;70078;51.596;5.678;2023-11-18T08:52:15;102009.44;;;6.59;89.23
80712;BME280;70078;51.596;5.678;2023-11-18T08:54:43;101971.59;;;6.45;88.90
80712;BME280;70078;51.596;5.678;2023-11-18T08:57:28;101996.22;;;6.71;88.59
80712;BME280;70078;51.596;5.678;2023-11-18T09:00:14;102015.81;;;6.81;88.74
80712;BME280;70078;51.596;5.678;2023-11-18T09:03:01;101939.13;;;6.41;88.72
80712;BME280;70078;51.596;5.678;2023-11-18T09:05:26;101985.84;;;6.67;88.81
80712;BME280;70078;51.596;5.678;2023-11-18T09:07:59;101990.56;;;6.75;89.03
80712;BME280;70078;51.596;5.678;2023-11-18T09:10:28;102009.81;;;6.90;89.00
80712;BME280;70078;51.596;5.678;2023-11-18T09:12:54;101998.00;;;6.94;88.70
80712;BME280;70078;51.596;5.678;2023-11-18T09:15:20;101978.84;;;6.66;88.80
80712;BME280;70078;51.596;5.678;2023-11-18T09:17:48;101934.22;;;6.48;89.00
80712;BME280;70078;51.596;5.678;2023-11-18T09:20:14;101996.56;;;6.90;89.06
80712;BME280;70078;51.596;5.678;2023-11-18T09:22:43;101978.03;;;6.77;89.02
80712;BME280;70078;51.596;5.678;2023-11-18T09:25:09;101962.50;;;6.84;89.11
80712;BME280;70078;51.596;5.678;2023-11-18T09:27:36;101962.03;;;6.90;88.73
80712;BME280;70078;51.596;5.678;2023-11-18T09:30:01;101965.81;;;6.99;88.62
80712;BME280;70078;51.596;5.678;2023-11-18T09:32:27;101965.09;;;6.97;88.43
80712;BME280;70078;51.596;5.678;2023-11-18T09:34:53;101984.97;;;7.26;88.57
80712;BME280;70078;51.596;5.678;2023-11-18T09:37:18;101973.84;;;7.21;88.29
80712;BME280;70078;51.596;5.678;2023-11-18T09:39:43;101973.72;;;7.22;88.48
80712;BME280;70078;51.596;5.678;2023-11-18T09:42:12;101944.97;;;7.16;88.29
80712;BME280;70078;51.596;5.678;2023-11-18T09:44:40;101924.69;;;7.15;87.88
80712;BME280;70078;51.596;5.678;2023-11-18T09:47:10;101930.16;;;7.25;88.39
80712;BME280;70078;51.596;5.678;2023-11-18T09:49:41;101941.66;;;7.26;88.44
80712;BME280;70078;51.596;5.678;2023-11-18T09:52:15;101883.06;;;7.05;88.15
80712;BME280;70078;51.596;5.678;2023-11-18T09:55:02;101892.13;;;7.13;88.36
80712;BME280;70078;51.596;5.678;2023-11-18T09:57:33;101922.81;;;7.29;88.88
80712;BME280;70078;51.596;5.678;2023-11-18T10:00:06;101933.44;;;7.29;88.64
80712;BME280;70078;51.596;5.678;2023-11-18T10:02:50;101912.31;;;7.27;88.63
80712;BME280;70078;51.596;5.678;2023-11-18T10:05:16;101908.81;;;7.27;88.82
80712;BME280;70078;51.596;5.678;2023-11-18T10:07:46;101925.72;;;7.37;89.33
80712;BME280;70078;51.596;5.678;2023-11-18T10:10:15;101927.91;;;7.43;89.04
80712;BME280;70078;51.596;5.678;2023-11-18T10:15:08;101918.97;;;7.44;89.00
80712;BME280;70078;51.596;5.678;2023-11-18T10:17:41;101913.38;;;7.47;88.67
80712;BME280;70078;51.596;5.678;2023-11-18T10:20:21;101898.53;;;7.44;89.23
80712;BME280;70078;51.596;5.678;2023-11-18T10:23:05;101862.81;;;7.26;89.24
80712;BME280;70078;51.596;5.678;2023-11-18T10:25:30;101884.91;;;7.49;89.40
80712;BME280;70078;51.596;5.678;2023-11-18T10:27:55;101835.25;;;7.16;89.67
80712;BME280;70078;51.596;5.678;2023-11-18T10:30:22;101872.09;;;7.32;89.78
80712;BME280;70078;51.596;5.678;2023-11-18T10:32:58;101845.16;;;7.25;89.80
80712;BME280;70078;51.596;5.678;2023-11-18T10:35:34;101889.38;;;7.48;90.24
80712;BME280;70078;51.596;5.678;2023-11-18T10:38:02;101874.50;;;7.46;90.21
80712;BME280;70078;51.596;5.678;2023-11-18T10:40:31;101866.19;;;7.39;90.40
80712;BME280;70078;51.596;5.678;2023-11-18T10:43:00;101850.00;;;7.42;90.78
80712;BME280;70078;51.596;5.678;2023-11-18T10:45:26;101864.88;;;7.56;90.31
80712;BME280;70078;51.596;5.678;2023-11-18T10:47:52;101844.81;;;7.41;90.44
80712;BME280;70078;51.596;5.678;2023-11-18T10:50:21;101835.88;;;7.42;90.88
80712;BME280;70078;51.596;5.678;2023-11-18T10:52:47;101793.53;;;7.18;90.97
80712;BME280;70078;51.596;5.678;2023-11-18T10:55:13;101838.63;;;7.40;91.30
80712;BME280;70078;51.596;5.678;2023-11-18T10:57:44;101814.88;;;7.28;91.74
80712;BME280;70078;51.596;5.678;2023-11-18T11:00:10;101815.72;;;7.39;91.59
80712;BME280;70078;51.596;5.678;2023-11-18T11:02:39;101819.22;;;7.51;91.16
80712;BME280;70078;51.596;5.678;2023-11-18T11:05:10;101830.06;;;7.59;91.22
80712;BME280;70078;51.596;5.678;2023-11-18T11:07:42;101857.81;;;7.77;91.12
80712;BME280;70078;51.596;5.678;2023-11-18T11:10:08;101850.09;;;7.74;91.41
80712;BME280;70078;51.596;5.678;2023-11-18T11:12:39;101847.81;;;7.70;91.42
80712;BME280;70078;51.596;5.678;2023-11-18T11:15:18;101853.69;;;7.85;91.50
80712;BME280;70078;51.596;5.678;2023-11-18T11:17:54;101846.94;;;7.81;91.26
80712;BME280;70078;51.596;5.678;2023-11-18T11:20:32;101824.00;;;7.79;91.55
80712;BME280;70078;51.596;5.678;2023-11-18T11:28:31;101788.81;;;7.87;91.10
80712;BME280;70078;51.596;5.678;2023-11-18T11:31:12;101802.47;;;7.94;91.04
80712;BME280;70078;51.596;5.678;2023-11-18T11:33:51;101767.34;;;7.79;90.35
80712;BME280;70078;51.596;5.678;2023-11-18T11:36:21;101743.22;;;7.71;90.84
80712;BME280;70078;51.596;5.678;2023-11-18T11:38:52;101765.25;;;7.83;91.38
80712;BME280;70078;51.596;5.678;2023-11-18T11:41:17;101734.38;;;7.70;91.80
80712;BME280;70078;51.596;5.678;2023-11-18T11:43:47;101718.56;;;7.69;91.53
80712;BME280;70078;51.596;5.678;2023-11-18T11:46:13;101747.97;;;7.88;91.71
80712;BME280;70078;51.596;5.678;2023-11-18T11:48:39;101728.13;;;7.92;92.16
80712;BME280;70078;51.596;5.678;2023-11-18T11:51:36;101714.72;;;7.94;92.03
80712;BME280;70078;51.596;5.678;2023-11-18T11:54:09;101712.44;;;7.89;92.06
80712;BME280;70078;51.596;5.678;2023-11-18T11:56:48;101684.81;;;7.81;92.50
80712;BME280;70078;51.596;5.678;2023-11-18T12:02:13;101643.16;;;7.70;92.54
80712;BME280;70078;51.596;5.678;2023-11-18T12:04:44;101682.88;;;8.03;92.25
80712;BME280;70078;51.596;5.678;2023-11-18T12:07:09;101666.09;;;8.03;92.16
80712;BME280;70078;51.596;5.678;2023-11-18T12:09:38;101644.09;;;8.01;92.23
80712;BME280;70078;51.596;5.678;2023-11-18T12:12:16;101633.44;;;8.01;93.01
80712;BME280;70078;51.596;5.678;2023-11-18T12:14:57;101632.69;;;8.10;93.05
80712;BME280;70078;51.596;5.678;2023-11-18T12:20:42;101602.13;;;8.04;92.85
80712;BME280;70078;51.596;5.678;2023-11-18T12:23:12;101614.50;;;8.15;92.73
80712;BME280;70078;51.596;5.678;2023-11-18T12:25:45;101578.41;;;7.92;92.74
80712;BME280;70078;51.596;5.678;2023-11-18T12:28:17;101590.00;;;8.12;92.49
80712;BME280;70078;51.596;5.678;2023-11-18T12:30:46;101600.44;;;8.24;92.37
80712;BME280;70078;51.596;5.678;2023-11-18T12:33:18;101576.50;;;8.24;92.36
80712;BME280;70078;51.596;5.678;2023-11-18T12:38:44;101572.84;;;8.25;92.62
80712;BME280;70078;51.596;5.678;2023-11-18T12:41:33;101566.94;;;8.22;92.80
80712;BME280;70078;51.596;5.678;2023-11-18T12:46:53;101554.25;;;8.25;92.99
80712;BME280;70078;51.596;5.678;2023-11-18T12:49:37;101533.66;;;8.27;92.22
80712;BME280;70078;51.596;5.678;2023-11-18T12:52:03;101481.97;;;8.11;91.86
80712;BME280;70078;51.596;5.678;2023-11-18T12:54:33;101488.00;;;8.22;91.76
80712;BME280;70078;51.596;5.678;2023-11-18T12:57:00;101503.88;;;8.33;91.69
80712;BME280;70078;51.596;5.678;2023-11-18T12:59:26;101455.38;;;8.20;91.59
80712;BME280;70078;51.596;5.678;2023-11-18T13:01:53;101445.81;;;8.08;91.96
80712;BME280;70078;51.596;5.678;2023-11-18T13:04:25;101453.00;;;8.17;92.33
80712;BME280;70078;51.596;5.678;2023-11-18T13:06:52;101451.59;;;8.13;92.59
80712;BME280;70078;51.596;5.678;2023-11-18T13:09:18;101471.34;;;8.30;92.55
80712;BME280;70078;51.596;5.678;2023-11-18T13:12:02;101436.78;;;8.20;92.30
80712;BME280;70078;51.596;5.678;2023-11-18T13:14:32;101406.34;;;7.94;92.64
80712;BME280;70078;51.596;5.678;2023-11-18T13:17:08;101440.72;;;8.26;92.82
80712;BME280;70078;51.596;5.678;2023-11-18T13:19:34;101433.66;;;8.15;93.09
80712;BME280;70078;51.596;5.678;2023-11-18T13:22:04;101389.28;;;8.06;92.34
80712;BME280;70078;51.596;5.678;2023-11-18T13:24:33;101416.84;;;8.05;93.18
80712;BME280;70078;51.596;5.678;2023-11-18T13:27:00;101398.78;;;7.99;93.60
80712;BME280;70078;51.596;5.678;2023-11-18T13:29:29;101419.22;;;8.08;93.87
80712;BME280;70078;51.596;5.678;2023-11-18T13:31:55;101386.91;;;8.03;93.12